Archival Weather

Westchester County

White Plains, New York (KHPN)

Report from: Friday, February 23, 2024 5:56 AM EST
Current time: Wednesday, May 29, 2024 8:57 PM EDT

Current weather – Weather history – Daily summaries
Weather forecast

Present weatherLight rain, fog
Temperature3.3°C (37.9°F)
Dew point2.8°C (37.0°F)
Winds Calm
Visibility2640 ft. (804.7 m)
Clouds Ceiling: Vertical visibility 100 ft. (30 m)
Altimeter29.53 in.Hg (1000 mB)
PrecipitiationTrace
Relative humidity97 %
Density altitude-869 ft. (-265 m)
Sea-level pressure100.0 kPa (1000 mB, 29.54 in.Hg)
Remarks Automated weather observing station with precipitation discriminator
Flight conditions Low Instrument Meteorological Conditions
Raw dataKHPN 231056Z 00000KT 1/2SM R16/P6000FT -RA FG VV001 03/03 A2953 RMK AO2 SLP004 P0000 T00330028
An error has occurred. This application may no longer respond until reloaded. Reload 🗙